Terminal Aerodrome Forecast
Issued by NWS Corpus Christi, TX

Home | Current Version | Previous Version | Text Only | Print | Product List | Glossary On
Versions: 1 2 3 4 5 6 7 8 9 10 11 12 13 14 15 16 17 18 19 20 21 22
000
FTUS44 KCRP 200600 AAA
TAFVCT
TAF AMD
KVCT 200605Z 2006/2106 14004KT 3SM BR SCT250
      TEMPO 2007/2009 2SM BR
     FM200900 11004KT 2SM BR BKN009
      TEMPO 2009/2012 1/2SM FG
     FM201500 15012KT P6SM BKN015
     FM201800 15015G20KT P6SM SCT025 BKN050
     FM210200 13007KT P6SM BKN050=

USA.gov is the U.S. government's official web portal to all federal, state and local government web resources and services.